Aviation Digital Data Service (ADDS)

Output produced by METARs form (0826 UTC 01 March 2015)
found at http://www.aviationweather.gov/adds/metars/
 
KDFW 010528Z 0106/0212 05005KT 5SM BR BKN007 OVC020 
     TEMPO 0106/0108 2SM -FZDZ BR BKN004 
     FM010800 04004KT 2SM -DZ BR OVC005 
     FM012100 01006KT 5SM BR VCSH OVC008